sensor_id;sensor_type;location;lat;lon;timestamp;P1;durP1;ratioP1;P2;durP2;ratioP2
20445;SDS011;10382;49.140;9.234;2023-08-01T00:00:48;7.67;;;4.87;;
20445;SDS011;10382;49.140;9.234;2023-08-01T00:03:14;12.43;;;4.57;;
20445;SDS011;10382;49.140;9.234;2023-08-01T00:05:43;10.67;;;6.23;;
20445;SDS011;10382;49.140;9.234;2023-08-01T00:08:10;8.20;;;4.77;;
20445;SDS011;10382;49.140;9.234;2023-08-01T00:10:38;16.67;;;6.23;;
20445;SDS011;10382;49.140;9.234;2023-08-01T00:13:05;11.00;;;6.37;;
20445;SDS011;10382;49.140;9.234;2023-08-01T00:15:32;10.63;;;4.93;;
20445;SDS011;10382;49.140;9.234;2023-08-01T00:17:59;12.47;;;5.70;;
20445;SDS011;10382;49.140;9.234;2023-08-01T00:20:26;7.23;;;4.63;;
20445;SDS011;10382;49.140;9.234;2023-08-01T00:22:54;19.10;;;8.27;;
20445;SDS011;10382;49.140;9.234;2023-08-01T00:25:21;11.57;;;5.10;;
20445;SDS011;10382;49.140;9.234;2023-08-01T00:27:48;9.90;;;4.87;;
20445;SDS011;10382;49.140;9.234;2023-08-01T00:30:16;11.90;;;6.30;;
20445;SDS011;10382;49.140;9.234;2023-08-01T00:32:43;15.50;;;7.80;;
20445;SDS011;10382;49.140;9.234;2023-08-01T00:35:10;21.80;;;5.47;;
20445;SDS011;10382;49.140;9.234;2023-08-01T00:37:37;10.97;;;5.37;;
20445;SDS011;10382;49.140;9.234;2023-08-01T00:40:06;12.20;;;5.77;;
20445;SDS011;10382;49.140;9.234;2023-08-01T00:42:35;16.83;;;5.13;;
20445;SDS011;10382;49.140;9.234;2023-08-01T00:45:03;9.87;;;5.60;;
20445;SDS011;10382;49.140;9.234;2023-08-01T00:47:30;15.63;;;6.00;;
20445;SDS011;10382;49.140;9.234;2023-08-01T00:49:57;12.63;;;6.30;;
20445;SDS011;10382;49.140;9.234;2023-08-01T00:52:24;7.90;;;4.60;;
20445;SDS011;10382;49.140;9.234;2023-08-01T00:54:51;18.23;;;6.20;;
20445;SDS011;10382;49.140;9.234;2023-08-01T00:57:19;11.10;;;5.87;;
20445;SDS011;10382;49.140;9.234;2023-08-01T00:59:47;9.60;;;5.60;;
20445;SDS011;10382;49.140;9.234;2023-08-01T01:02:14;12.77;;;5.20;;
20445;SDS011;10382;49.140;9.234;2023-08-01T01:04:40;24.90;;;11.53;;
20445;SDS011;10382;49.140;9.234;2023-08-01T01:07:07;8.03;;;5.30;;
20445;SDS011;10382;49.140;9.234;2023-08-01T01:09:35;10.27;;;5.27;;
20445;SDS011;10382;49.140;9.234;2023-08-01T01:12:02;12.30;;;5.87;;
20445;SDS011;10382;49.140;9.234;2023-08-01T01:14:31;13.63;;;4.67;;
20445;SDS011;10382;49.140;9.234;2023-08-01T01:16:58;10.23;;;6.03;;
20445;SDS011;10382;49.140;9.234;2023-08-01T01:19:24;10.60;;;4.60;;
20445;SDS011;10382;49.140;9.234;2023-08-01T01:21:53;15.00;;;5.80;;
20445;SDS011;10382;49.140;9.234;2023-08-01T01:24:21;9.80;;;5.57;;
20445;SDS011;10382;49.140;9.234;2023-08-01T01:26:48;7.27;;;4.40;;
20445;SDS011;10382;49.140;9.234;2023-08-01T01:29:17;7.83;;;5.20;;
20445;SDS011;10382;49.140;9.234;2023-08-01T01:31:45;12.23;;;5.37;;
20445;SDS011;10382;49.140;9.234;2023-08-01T01:34:13;7.97;;;5.30;;
20445;SDS011;10382;49.140;9.234;2023-08-01T01:36:40;13.47;;;5.43;;
20445;SDS011;10382;49.140;9.234;2023-08-01T01:39:08;8.77;;;4.30;;
20445;SDS011;10382;49.140;9.234;2023-08-01T01:41:35;10.47;;;5.90;;
20445;SDS011;10382;49.140;9.234;2023-08-01T01:44:02;10.70;;;5.33;;
20445;SDS011;10382;49.140;9.234;2023-08-01T01:46:29;7.80;;;4.90;;
20445;SDS011;10382;49.140;9.234;2023-08-01T01:48:56;18.30;;;7.27;;
20445;SDS011;10382;49.140;9.234;2023-08-01T01:51:25;7.03;;;4.47;;
20445;SDS011;10382;49.140;9.234;2023-08-01T01:53:52;10.70;;;6.20;;
20445;SDS011;10382;49.140;9.234;2023-08-01T01:56:20;10.20;;;4.73;;
20445;SDS011;10382;49.140;9.234;2023-08-01T01:58:47;13.47;;;5.77;;
20445;SDS011;10382;49.140;9.234;2023-08-01T02:01:14;12.30;;;5.70;;
20445;SDS011;10382;49.140;9.234;2023-08-01T02:03:41;13.50;;;5.13;;
20445;SDS011;10382;49.140;9.234;2023-08-01T02:06:08;11.30;;;5.03;;
20445;SDS011;10382;49.140;9.234;2023-08-01T02:08:34;16.77;;;6.97;;
20445;SDS011;10382;49.140;9.234;2023-08-01T02:11:01;9.77;;;5.30;;
20445;SDS011;10382;49.140;9.234;2023-08-01T02:13:31;9.43;;;5.20;;
20445;SDS011;10382;49.140;9.234;2023-08-01T02:15:58;9.90;;;4.97;;
20445;SDS011;10382;49.140;9.234;2023-08-01T02:18:25;16.20;;;7.03;;
20445;SDS011;10382;49.140;9.234;2023-08-01T02:20:52;13.60;;;6.97;;
20445;SDS011;10382;49.140;9.234;2023-08-01T02:23:18;12.93;;;6.30;;
20445;SDS011;10382;49.140;9.234;2023-08-01T02:25:45;17.97;;;7.17;;
20445;SDS011;10382;49.140;9.234;2023-08-01T02:28:12;10.47;;;5.23;;
20445;SDS011;10382;49.140;9.234;2023-08-01T02:30:41;9.23;;;5.23;;
20445;SDS011;10382;49.140;9.234;2023-08-01T02:33:08;11.90;;;5.70;;
20445;SDS011;10382;49.140;9.234;2023-08-01T02:35:35;17.33;;;6.00;;
20445;SDS011;10382;49.140;9.234;2023-08-01T02:38:02;16.27;;;6.93;;
20445;SDS011;10382;49.140;9.234;2023-08-01T02:40:29;12.53;;;5.40;;
20445;SDS011;10382;49.140;9.234;2023-08-01T02:42:56;11.57;;;5.90;;
20445;SDS011;10382;49.140;9.234;2023-08-01T02:45:22;13.10;;;5.73;;
20445;SDS011;10382;49.140;9.234;2023-08-01T02:47:51;11.23;;;5.90;;
20445;SDS011;10382;49.140;9.234;2023-08-01T02:50:18;11.10;;;6.27;;
20445;SDS011;10382;49.140;9.234;2023-08-01T02:52:45;10.23;;;5.37;;
20445;SDS011;10382;49.140;9.234;2023-08-01T02:55:12;9.13;;;5.67;;
20445;SDS011;10382;49.140;9.234;2023-08-01T02:57:38;10.13;;;5.13;;
20445;SDS011;10382;49.140;9.234;2023-08-01T03:00:06;16.90;;;5.47;;
20445;SDS011;10382;49.140;9.234;2023-08-01T03:02:36;17.47;;;7.00;;
20445;SDS011;10382;49.140;9.234;2023-08-01T03:05:05;19.37;;;8.40;;
20445;SDS011;10382;49.140;9.234;2023-08-01T03:07:33;18.93;;;7.13;;
20445;SDS011;10382;49.140;9.234;2023-08-01T03:09:59;20.07;;;6.10;;
20445;SDS011;10382;49.140;9.234;2023-08-01T03:12:27;19.23;;;7.37;;
20445;SDS011;10382;49.140;9.234;2023-08-01T03:14:54;15.97;;;7.93;;
20445;SDS011;10382;49.140;9.234;2023-08-01T03:17:21;16.13;;;7.70;;
20445;SDS011;10382;49.140;9.234;2023-08-01T03:19:48;11.97;;;6.57;;
20445;SDS011;10382;49.140;9.234;2023-08-01T03:22:16;16.13;;;6.70;;
20445;SDS011;10382;49.140;9.234;2023-08-01T03:24:43;22.60;;;7.90;;
20445;SDS011;10382;49.140;9.234;2023-08-01T03:27:10;11.57;;;5.90;;
20445;SDS011;10382;49.140;9.234;2023-08-01T03:29:37;13.73;;;5.80;;
20445;SDS011;10382;49.140;9.234;2023-08-01T03:32:04;9.17;;;5.60;;
20445;SDS011;10382;49.140;9.234;2023-08-01T03:34:31;10.73;;;5.63;;
20445;SDS011;10382;49.140;9.234;2023-08-01T03:36:58;10.55;;;5.90;;
20445;SDS011;10382;49.140;9.234;2023-08-01T03:39:26;9.87;;;5.97;;
20445;SDS011;10382;49.140;9.234;2023-08-01T03:41:53;8.60;;;4.83;;
20445;SDS011;10382;49.140;9.234;2023-08-01T03:44:20;12.67;;;5.90;;
20445;SDS011;10382;49.140;9.234;2023-08-01T03:46:48;10.50;;;5.50;;
20445;SDS011;10382;49.140;9.234;2023-08-01T03:49:15;14.73;;;5.50;;
20445;SDS011;10382;49.140;9.234;2023-08-01T03:51:42;17.47;;;5.50;;
20445;SDS011;10382;49.140;9.234;2023-08-01T03:54:08;12.53;;;6.27;;
20445;SDS011;10382;49.140;9.234;2023-08-01T03:56:37;13.40;;;5.80;;
20445;SDS011;10382;49.140;9.234;2023-08-01T03:59:08;15.80;;;5.97;;
20445;SDS011;10382;49.140;9.234;2023-08-01T04:01:34;8.40;;;4.87;;
20445;SDS011;10382;49.140;9.234;2023-08-01T04:04:01;13.73;;;5.13;;
20445;SDS011;10382;49.140;9.234;2023-08-01T04:06:28;10.80;;;6.40;;
20445;SDS011;10382;49.140;9.234;2023-08-01T04:08:55;10.43;;;5.63;;
20445;SDS011;10382;49.140;9.234;2023-08-01T04:11:22;10.73;;;5.47;;
20445;SDS011;10382;49.140;9.234;2023-08-01T04:13:50;11.20;;;5.37;;
20445;SDS011;10382;49.140;9.234;2023-08-01T04:16:17;9.10;;;5.33;;
20445;SDS011;10382;49.140;9.234;2023-08-01T04:18:44;8.40;;;5.13;;
20445;SDS011;10382;49.140;9.234;2023-08-01T04:21:11;14.07;;;7.83;;
20445;SDS011;10382;49.140;9.234;2023-08-01T04:23:39;10.50;;;4.90;;
20445;SDS011;10382;49.140;9.234;2023-08-01T04:26:06;13.67;;;6.73;;
20445;SDS011;10382;49.140;9.234;2023-08-01T04:28:33;10.47;;;6.10;;
20445;SDS011;10382;49.140;9.234;2023-08-01T04:31:01;11.87;;;5.87;;
20445;SDS011;10382;49.140;9.234;2023-08-01T04:33:28;9.47;;;5.83;;
20445;SDS011;10382;49.140;9.234;2023-08-01T04:35:55;12.43;;;5.90;;
20445;SDS011;10382;49.140;9.234;2023-08-01T04:38:21;12.80;;;6.00;;
20445;SDS011;10382;49.140;9.234;2023-08-01T04:40:48;10.80;;;6.33;;
20445;SDS011;10382;49.140;9.234;2023-08-01T04:43:15;6.93;;;5.03;;
20445;SDS011;10382;49.140;9.234;2023-08-01T04:45:42;9.87;;;6.00;;
20445;SDS011;10382;49.140;9.234;2023-08-01T04:48:10;15.37;;;7.67;;
20445;SDS011;10382;49.140;9.234;2023-08-01T04:50:37;13.13;;;5.70;;
20445;SDS011;10382;49.140;9.234;2023-08-01T04:53:04;14.57;;;7.33;;
20445;SDS011;10382;49.140;9.234;2023-08-01T04:55:31;12.37;;;6.40;;
20445;SDS011;10382;49.140;9.234;2023-08-01T04:57:58;12.90;;;6.60;;
20445;SDS011;10382;49.140;9.234;2023-08-01T05:00:25;12.70;;;6.23;;
20445;SDS011;10382;49.140;9.234;2023-08-01T05:02:51;11.87;;;5.70;;
20445;SDS011;10382;49.140;9.234;2023-08-01T05:05:20;17.50;;;6.53;;
20445;SDS011;10382;49.140;9.234;2023-08-01T05:07:46;13.57;;;6.53;;
20445;SDS011;10382;49.140;9.234;2023-08-01T05:10:13;14.57;;;5.30;;
20445;SDS011;10382;49.140;9.234;2023-08-01T05:12:40;11.67;;;6.10;;
20445;SDS011;10382;49.140;9.234;2023-08-01T05:15:07;9.67;;;5.60;;
20445;SDS011;10382;49.140;9.234;2023-08-01T05:17:34;10.90;;;5.40;;
20445;SDS011;10382;49.140;9.234;2023-08-01T05:20:01;12.50;;;5.00;;
20445;SDS011;10382;49.140;9.234;2023-08-01T05:22:30;7.93;;;5.13;;
20445;SDS011;10382;49.140;9.234;2023-08-01T05:24:57;10.67;;;6.47;;
20445;SDS011;10382;49.140;9.234;2023-08-01T05:27:24;13.00;;;6.03;;
20445;SDS011;10382;49.140;9.234;2023-08-01T05:29:51;9.80;;;5.83;;
20445;SDS011;10382;49.140;9.234;2023-08-01T05:32:18;32.47;;;8.70;;
20445;SDS011;10382;49.140;9.234;2023-08-01T05:34:45;9.57;;;5.70;;
20445;SDS011;10382;49.140;9.234;2023-08-01T05:37:12;15.83;;;7.77;;
20445;SDS011;10382;49.140;9.234;2023-08-01T05:39:40;12.43;;;6.50;;
20445;SDS011;10382;49.140;9.234;2023-08-01T05:42:07;7.90;;;5.20;;
20445;SDS011;10382;49.140;9.234;2023-08-01T05:44:34;15.63;;;6.60;;
20445;SDS011;10382;49.140;9.234;2023-08-01T05:47:04;12.57;;;6.50;;
20445;SDS011;10382;49.140;9.234;2023-08-01T05:49:31;9.07;;;5.73;;
20445;SDS011;10382;49.140;9.234;2023-08-01T05:51:58;11.53;;;5.03;;
20445;SDS011;10382;49.140;9.234;2023-08-01T05:54:25;11.43;;;5.57;;
20445;SDS011;10382;49.140;9.234;2023-08-01T05:56:53;16.50;;;7.80;;
20445;SDS011;10382;49.140;9.234;2023-08-01T05:59:20;13.90;;;5.97;;
20445;SDS011;10382;49.140;9.234;2023-08-01T06:01:47;8.50;;;5.27;;
20445;SDS011;10382;49.140;9.234;2023-08-01T06:04:14;15.50;;;6.20;;
20445;SDS011;10382;49.140;9.234;2023-08-01T06:06:41;14.83;;;6.50;;
20445;SDS011;10382;49.140;9.234;2023-08-01T06:09:08;9.63;;;5.70;;
20445;SDS011;10382;49.140;9.234;2023-08-01T06:11:35;8.73;;;6.17;;
20445;SDS011;10382;49.140;9.234;2023-08-01T06:14:03;12.23;;;7.07;;
20445;SDS011;10382;49.140;9.234;2023-08-01T06:16:30;15.87;;;6.07;;
20445;SDS011;10382;49.140;9.234;2023-08-01T06:18:57;16.90;;;6.33;;
20445;SDS011;10382;49.140;9.234;2023-08-01T06:21:24;10.00;;;5.50;;
20445;SDS011;10382;49.140;9.234;2023-08-01T06:23:51;16.90;;;7.07;;
20445;SDS011;10382;49.140;9.234;2023-08-01T06:26:18;14.93;;;6.13;;
20445;SDS011;10382;49.140;9.234;2023-08-01T06:28:45;17.27;;;8.77;;
20445;SDS011;10382;49.140;9.234;2023-08-01T06:31:13;22.10;;;7.40;;
20445;SDS011;10382;49.140;9.234;2023-08-01T06:33:40;19.03;;;7.70;;
20445;SDS011;10382;49.140;9.234;2023-08-01T06:36:07;12.43;;;5.70;;
20445;SDS011;10382;49.140;9.234;2023-08-01T06:38:34;15.70;;;7.90;;
20445;SDS011;10382;49.140;9.234;2023-08-01T06:41:00;18.23;;;6.27;;
20445;SDS011;10382;49.140;9.234;2023-08-01T06:43:28;12.30;;;6.23;;
20445;SDS011;10382;49.140;9.234;2023-08-01T06:45:55;14.80;;;5.73;;
20445;SDS011;10382;49.140;9.234;2023-08-01T06:48:23;12.57;;;6.23;;
20445;SDS011;10382;49.140;9.234;2023-08-01T06:50:50;17.47;;;6.40;;
20445;SDS011;10382;49.140;9.234;2023-08-01T06:53:17;10.40;;;5.70;;
20445;SDS011;10382;49.140;9.234;2023-08-01T06:55:44;17.67;;;7.03;;
20445;SDS011;10382;49.140;9.234;2023-08-01T06:58:11;14.75;;;6.90;;
20445;SDS011;10382;49.140;9.234;2023-08-01T07:00:38;18.03;;;6.90;;
20445;SDS011;10382;49.140;9.234;2023-08-01T07:03:05;26.93;;;9.30;;
20445;SDS011;10382;49.140;9.234;2023-08-01T07:05:33;18.30;;;6.37;;
20445;SDS011;10382;49.140;9.234;2023-08-01T07:08:00;14.30;;;6.90;;
20445;SDS011;10382;49.140;9.234;2023-08-01T07:10:26;12.70;;;5.97;;
20445;SDS011;10382;49.140;9.234;2023-08-01T07:12:53;26.17;;;8.87;;
20445;SDS011;10382;49.140;9.234;2023-08-01T07:15:20;15.00;;;6.17;;
20445;SDS011;10382;49.140;9.234;2023-08-01T07:17:47;17.37;;;7.40;;
20445;SDS011;10382;49.140;9.234;2023-08-01T07:20:14;12.90;;;6.47;;
20445;SDS011;10382;49.140;9.234;2023-08-01T07:22:42;23.63;;;6.40;;
20445;SDS011;10382;49.140;9.234;2023-08-01T07:25:09;13.37;;;5.93;;
20445;SDS011;10382;49.140;9.234;2023-08-01T07:27:36;13.37;;;5.60;;
20445;SDS011;10382;49.140;9.234;2023-08-01T07:30:03;12.70;;;6.23;;
20445;SDS011;10382;49.140;9.234;2023-08-01T07:32:30;17.37;;;6.93;;
20445;SDS011;10382;49.140;9.234;2023-08-01T07:34:57;13.33;;;5.97;;
20445;SDS011;10382;49.140;9.234;2023-08-01T07:37:24;12.30;;;5.57;;
20445;SDS011;10382;49.140;9.234;2023-08-01T07:39:54;24.83;;;7.13;;
20445;SDS011;10382;49.140;9.234;2023-08-01T07:42:21;18.27;;;8.00;;
20445;SDS011;10382;49.140;9.234;2023-08-01T07:44:48;21.30;;;7.27;;
20445;SDS011;10382;49.140;9.234;2023-08-01T07:47:15;19.07;;;7.77;;
20445;SDS011;10382;49.140;9.234;2023-08-01T07:49:42;13.57;;;5.50;;
20445;SDS011;10382;49.140;9.234;2023-08-01T07:52:09;9.00;;;4.83;;
20445;SDS011;10382;49.140;9.234;2023-08-01T07:54:36;15.10;;;7.30;;
20445;SDS011;10382;49.140;9.234;2023-08-01T07:57:04;13.30;;;6.00;;
20445;SDS011;10382;49.140;9.234;2023-08-01T07:59:32;16.57;;;5.77;;
20445;SDS011;10382;49.140;9.234;2023-08-01T08:01:58;25.33;;;7.20;;
20445;SDS011;10382;49.140;9.234;2023-08-01T08:04:26;11.27;;;5.57;;
20445;SDS011;10382;49.140;9.234;2023-08-01T08:06:52;15.17;;;7.47;;
20445;SDS011;10382;49.140;9.234;2023-08-01T08:09:20;9.20;;;5.13;;
20445;SDS011;10382;49.140;9.234;2023-08-01T08:11:47;12.87;;;6.77;;
20445;SDS011;10382;49.140;9.234;2023-08-01T08:14:16;9.67;;;6.00;;
20445;SDS011;10382;49.140;9.234;2023-08-01T08:16:45;12.63;;;6.50;;
20445;SDS011;10382;49.140;9.234;2023-08-01T08:19:12;13.07;;;6.57;;
20445;SDS011;10382;49.140;9.234;2023-08-01T08:21:39;16.90;;;8.80;;
20445;SDS011;10382;49.140;9.234;2023-08-01T08:24:06;11.07;;;5.60;;
20445;SDS011;10382;49.140;9.234;2023-08-01T08:26:32;14.30;;;7.60;;
20445;SDS011;10382;49.140;9.234;2023-08-01T08:29:02;11.07;;;5.47;;
20445;SDS011;10382;49.140;9.234;2023-08-01T08:31:31;13.00;;;6.77;;
20445;SDS011;10382;49.140;9.234;2023-08-01T08:33:58;13.50;;;6.43;;
20445;SDS011;10382;49.140;9.234;2023-08-01T08:36:24;10.87;;;5.73;;
20445;SDS011;10382;49.140;9.234;2023-08-01T08:38:51;14.30;;;6.57;;
20445;SDS011;10382;49.140;9.234;2023-08-01T08:41:19;7.87;;;5.40;;
20445;SDS011;10382;49.140;9.234;2023-08-01T08:43:47;8.40;;;4.93;;
20445;SDS011;10382;49.140;9.234;2023-08-01T08:46:15;10.10;;;6.10;;
20445;SDS011;10382;49.140;9.234;2023-08-01T08:48:44;17.27;;;8.20;;
20445;SDS011;10382;49.140;9.234;2023-08-01T08:51:11;10.07;;;5.93;;
20445;SDS011;10382;49.140;9.234;2023-08-01T08:53:39;21.77;;;9.07;;
20445;SDS011;10382;49.140;9.234;2023-08-01T08:56:08;10.70;;;5.87;;
20445;SDS011;10382;49.140;9.234;2023-08-01T08:58:35;11.17;;;6.40;;
20445;SDS011;10382;49.140;9.234;2023-08-01T09:01:05;10.70;;;5.53;;
20445;SDS011;10382;49.140;9.234;2023-08-01T09:03:33;12.83;;;6.80;;
20445;SDS011;10382;49.140;9.234;2023-08-01T09:06:02;8.23;;;4.70;;
20445;SDS011;10382;49.140;9.234;2023-08-01T09:08:35;10.20;;;5.60;;
20445;SDS011;10382;49.140;9.234;2023-08-01T09:11:03;13.05;;;5.80;;
20445;SDS011;10382;49.140;9.234;2023-08-01T09:13:30;10.03;;;4.60;;
20445;SDS011;10382;49.140;9.234;2023-08-01T09:15:57;7.43;;;4.50;;
20445;SDS011;10382;49.140;9.234;2023-08-01T09:18:25;7.07;;;4.18;;
20445;SDS011;10382;49.140;9.234;2023-08-01T09:20:53;8.93;;;5.23;;
20445;SDS011;10382;49.140;9.234;2023-08-01T09:23:24;10.77;;;4.67;;
20445;SDS011;10382;49.140;9.234;2023-08-01T09:25:52;7.53;;;4.50;;
20445;SDS011;10382;49.140;9.234;2023-08-01T09:28:19;7.60;;;3.97;;
20445;SDS011;10382;49.140;9.234;2023-08-01T09:30:48;6.53;;;3.80;;
20445;SDS011;10382;49.140;9.234;2023-08-01T09:33:16;6.30;;;2.40;;
20445;SDS011;10382;49.140;9.234;2023-08-01T09:35:43;13.40;;;5.07;;
20445;SDS011;10382;49.140;9.234;2023-08-01T09:38:11;3.80;;;2.60;;
20445;SDS011;10382;49.140;9.234;2023-08-01T09:40:40;7.63;;;3.43;;
20445;SDS011;10382;49.140;9.234;2023-08-01T09:43:09;4.60;;;2.90;;
20445;SDS011;10382;49.140;9.234;2023-08-01T09:45:36;10.17;;;4.67;;
20445;SDS011;10382;49.140;9.234;2023-08-01T09:48:03;6.17;;;3.33;;
20445;SDS011;10382;49.140;9.234;2023-08-01T09:50:30;5.93;;;3.33;;
20445;SDS011;10382;49.140;9.234;2023-08-01T09:53:06;4.80;;;2.53;;
20445;SDS011;10382;49.140;9.234;2023-08-01T09:55:34;10.87;;;3.93;;
20445;SDS011;10382;49.140;9.234;2023-08-01T09:58:03;4.00;;;2.03;;
20445;SDS011;10382;49.140;9.234;2023-08-01T10:00:33;10.00;;;3.90;;
20445;SDS011;10382;49.140;9.234;2023-08-01T10:03:00;14.30;;;6.27;;
20445;SDS011;10382;49.140;9.234;2023-08-01T10:05:29;10.90;;;4.00;;
20445;SDS011;10382;49.140;9.234;2023-08-01T10:07:58;3.67;;;2.33;;
20445;SDS011;10382;49.140;9.234;2023-08-01T10:10:26;6.50;;;2.93;;
20445;SDS011;10382;49.140;9.234;2023-08-01T10:12:54;7.30;;;2.33;;
20445;SDS011;10382;49.140;9.234;2023-08-01T10:15:24;4.90;;;2.60;;
20445;SDS011;10382;49.140;9.234;2023-08-01T10:17:51;6.30;;;3.70;;
20445;SDS011;10382;49.140;9.234;2023-08-01T10:20:18;6.07;;;2.97;;
20445;SDS011;10382;49.140;9.234;2023-08-01T10:22:47;12.93;;;4.80;;
20445;SDS011;10382;49.140;9.234;2023-08-01T10:25:16;6.00;;;3.40;;
20445;SDS011;10382;49.140;9.234;2023-08-01T10:27:44;4.97;;;2.70;;
20445;SDS011;10382;49.140;9.234;2023-08-01T10:30:11;9.83;;;4.10;;
20445;SDS011;10382;49.140;9.234;2023-08-01T10:32:39;5.50;;;2.93;;
20445;SDS011;10382;49.140;9.234;2023-08-01T10:35:06;4.70;;;2.70;;
20445;SDS011;10382;49.140;9.234;2023-08-01T10:37:40;7.47;;;3.70;;
20445;SDS011;10382;49.140;9.234;2023-08-01T10:40:08;5.50;;;2.20;;
20445;SDS011;10382;49.140;9.234;2023-08-01T10:42:39;6.43;;;2.90;;
20445;SDS011;10382;49.140;9.234;2023-08-01T10:45:06;5.33;;;2.90;;
20445;SDS011;10382;49.140;9.234;2023-08-01T10:47:34;8.80;;;4.20;;
20445;SDS011;10382;49.140;9.234;2023-08-01T10:50:12;4.40;;;2.23;;
20445;SDS011;10382;49.140;9.234;2023-08-01T10:52:40;6.57;;;3.27;;
20445;SDS011;10382;49.140;9.234;2023-08-01T10:55:08;4.30;;;2.70;;
20445;SDS011;10382;49.140;9.234;2023-08-01T10:57:35;5.00;;;2.40;;
20445;SDS011;10382;49.140;9.234;2023-08-01T11:00:06;9.97;;;5.30;;
20445;SDS011;10382;49.140;9.234;2023-08-01T11:02:35;13.50;;;3.40;;
20445;SDS011;10382;49.140;9.234;2023-08-01T11:05:04;7.10;;;3.27;;
20445;SDS011;10382;49.140;9.234;2023-08-01T11:07:32;7.10;;;3.13;;
20445;SDS011;10382;49.140;9.234;2023-08-01T11:10:03;5.03;;;3.00;;
20445;SDS011;10382;49.140;9.234;2023-08-01T11:12:33;4.70;;;2.80;;
20445;SDS011;10382;49.140;9.234;2023-08-01T11:15:00;4.87;;;2.83;;
20445;SDS011;10382;49.140;9.234;2023-08-01T11:17:28;10.20;;;2.83;;
20445;SDS011;10382;49.140;9.234;2023-08-01T11:20:00;4.47;;;2.53;;
20445;SDS011;10382;49.140;9.234;2023-08-01T11:22:30;3.53;;;2.30;;
20445;SDS011;10382;49.140;9.234;2023-08-01T11:24:57;5.27;;;2.63;;
20445;SDS011;10382;49.140;9.234;2023-08-01T11:27:24;3.70;;;2.70;;
20445;SDS011;10382;49.140;9.234;2023-08-01T11:29:52;3.27;;;2.53;;
20445;SDS011;10382;49.140;9.234;2023-08-01T11:32:19;10.13;;;2.60;;
20445;SDS011;10382;49.140;9.234;2023-08-01T11:34:47;6.23;;;2.37;;
20445;SDS011;10382;49.140;9.234;2023-08-01T11:37:14;8.07;;;4.07;;
20445;SDS011;10382;49.140;9.234;2023-08-01T11:39:45;5.10;;;3.27;;
20445;SDS011;10382;49.140;9.234;2023-08-01T11:42:14;4.03;;;3.20;;
20445;SDS011;10382;49.140;9.234;2023-08-01T11:44:42;4.90;;;3.27;;
20445;SDS011;10382;49.140;9.234;2023-08-01T11:47:10;2.50;;;2.10;;
20445;SDS011;10382;49.140;9.234;2023-08-01T11:49:39;4.43;;;2.67;;
20445;SDS011;10382;49.140;9.234;2023-08-01T11:52:21;4.67;;;3.10;;
20445;SDS011;10382;49.140;9.234;2023-08-01T11:54:50;13.13;;;4.80;;
20445;SDS011;10382;49.140;9.234;2023-08-01T11:57:17;3.27;;;2.57;;
20445;SDS011;10382;49.140;9.234;2023-08-01T11:59:47;4.80;;;3.10;;
20445;SDS011;10382;49.140;9.234;2023-08-01T12:02:21;5.70;;;2.63;;
20445;SDS011;10382;49.140;9.234;2023-08-01T12:04:49;13.53;;;4.73;;
20445;SDS011;10382;49.140;9.234;2023-08-01T12:07:17;5.20;;;2.77;;
20445;SDS011;10382;49.140;9.234;2023-08-01T12:09:44;5.37;;;3.63;;
20445;SDS011;10382;49.140;9.234;2023-08-01T12:12:22;7.27;;;3.07;;
20445;SDS011;10382;49.140;9.234;2023-08-01T12:14:49;6.40;;;3.60;;
20445;SDS011;10382;49.140;9.234;2023-08-01T12:17:15;4.57;;;2.63;;
20445;SDS011;10382;49.140;9.234;2023-08-01T12:19:42;10.03;;;4.53;;
20445;SDS011;10382;49.140;9.234;2023-08-01T12:22:09;6.60;;;2.57;;
20445;SDS011;10382;49.140;9.234;2023-08-01T12:24:36;7.73;;;3.73;;
20445;SDS011;10382;49.140;9.234;2023-08-01T12:27:04;14.98;;;5.45;;
20445;SDS011;10382;49.140;9.234;2023-08-01T12:29:32;8.70;;;4.67;;
20445;SDS011;10382;49.140;9.234;2023-08-01T12:32:00;7.20;;;3.50;;
20445;SDS011;10382;49.140;9.234;2023-08-01T12:34:27;6.77;;;3.17;;
20445;SDS011;10382;49.140;9.234;2023-08-01T12:36:54;6.77;;;3.03;;
20445;SDS011;10382;49.140;9.234;2023-08-01T12:39:21;12.53;;;3.83;;
20445;SDS011;10382;49.140;9.234;2023-08-01T12:41:50;10.63;;;4.03;;
20445;SDS011;10382;49.140;9.234;2023-08-01T12:44:17;6.37;;;2.90;;
20445;SDS011;10382;49.140;9.234;2023-08-01T12:46:45;10.60;;;5.23;;
20445;SDS011;10382;49.140;9.234;2023-08-01T12:49:12;8.40;;;3.70;;
20445;SDS011;10382;49.140;9.234;2023-08-01T12:51:38;8.50;;;4.60;;
20445;SDS011;10382;49.140;9.234;2023-08-01T12:54:05;5.00;;;2.90;;
20445;SDS011;10382;49.140;9.234;2023-08-01T12:56:32;6.87;;;4.10;;
20445;SDS011;10382;49.140;9.234;2023-08-01T12:58:59;4.10;;;2.17;;
20445;SDS011;10382;49.140;9.234;2023-08-01T13:01:26;7.73;;;3.90;;
20445;SDS011;10382;49.140;9.234;2023-08-01T13:03:54;2.67;;;2.27;;
20445;SDS011;10382;49.140;9.234;2023-08-01T13:06:21;3.80;;;3.10;;
20445;SDS011;10382;49.140;9.234;2023-08-01T13:08:47;5.40;;;3.30;;
20445;SDS011;10382;49.140;9.234;2023-08-01T13:11:14;6.33;;;3.07;;
20445;SDS011;10382;49.140;9.234;2023-08-01T13:13:42;3.37;;;2.50;;
20445;SDS011;10382;49.140;9.234;2023-08-01T13:16:09;5.03;;;2.90;;
20445;SDS011;10382;49.140;9.234;2023-08-01T13:18:35;4.47;;;3.30;;
20445;SDS011;10382;49.140;9.234;2023-08-01T13:21:09;4.67;;;2.50;;
20445;SDS011;10382;49.140;9.234;2023-08-01T13:23:37;11.40;;;4.30;;
20445;SDS011;10382;49.140;9.234;2023-08-01T13:26:04;4.80;;;2.90;;
20445;SDS011;10382;49.140;9.234;2023-08-01T13:28:30;4.13;;;2.77;;
20445;SDS011;10382;49.140;9.234;2023-08-01T13:30:57;3.50;;;2.57;;
20445;SDS011;10382;49.140;9.234;2023-08-01T13:33:24;3.53;;;2.73;;
20445;SDS011;10382;49.140;9.234;2023-08-01T13:35:51;4.20;;;2.72;;
20445;SDS011;10382;49.140;9.234;2023-08-01T13:38:20;12.03;;;3.33;;
20445;SDS011;10382;49.140;9.234;2023-08-01T13:40:47;6.80;;;2.63;;
20445;SDS011;10382;49.140;9.234;2023-08-01T13:43:13;5.13;;;3.37;;
20445;SDS011;10382;49.140;9.234;2023-08-01T13:45:40;5.50;;;2.53;;
20445;SDS011;10382;49.140;9.234;2023-08-01T13:48:07;4.87;;;3.40;;
20445;SDS011;10382;49.140;9.234;2023-08-01T13:50:34;3.97;;;2.70;;
20445;SDS011;10382;49.140;9.234;2023-08-01T13:53:01;7.43;;;4.30;;
20445;SDS011;10382;49.140;9.234;2023-08-01T13:55:31;6.87;;;3.67;;
20445;SDS011;10382;49.140;9.234;2023-08-01T13:57:58;5.40;;;3.73;;
20445;SDS011;10382;49.140;9.234;2023-08-01T14:00:25;3.80;;;3.20;;
20445;SDS011;10382;49.140;9.234;2023-08-01T14:02:52;2.43;;;2.23;;
20445;SDS011;10382;49.140;9.234;2023-08-01T14:05:19;6.60;;;3.50;;
20445;SDS011;10382;49.140;9.234;2023-08-01T14:07:45;9.00;;;4.07;;
20445;SDS011;10382;49.140;9.234;2023-08-01T14:10:12;3.33;;;2.67;;
20445;SDS011;10382;49.140;9.234;2023-08-01T14:12:41;6.87;;;4.53;;
20445;SDS011;10382;49.140;9.234;2023-08-01T14:15:08;3.27;;;2.10;;
20445;SDS011;10382;49.140;9.234;2023-08-01T14:17:36;5.93;;;3.20;;
20445;SDS011;10382;49.140;9.234;2023-08-01T14:20:05;7.73;;;3.47;;
20445;SDS011;10382;49.140;9.234;2023-08-01T14:22:32;3.60;;;2.50;;
20445;SDS011;10382;49.140;9.234;2023-08-01T14:24:59;5.10;;;2.80;;
20445;SDS011;10382;49.140;9.234;2023-08-01T14:27:26;5.60;;;2.60;;
20445;SDS011;10382;49.140;9.234;2023-08-01T14:29:54;3.07;;;2.70;;
20445;SDS011;10382;49.140;9.234;2023-08-01T14:32:21;3.70;;;3.10;;
20445;SDS011;10382;49.140;9.234;2023-08-01T14:34:48;5.10;;;3.17;;
20445;SDS011;10382;49.140;9.234;2023-08-01T14:37:14;5.20;;;3.57;;
20445;SDS011;10382;49.140;9.234;2023-08-01T14:39:41;5.83;;;3.47;;
20445;SDS011;10382;49.140;9.234;2023-08-01T14:42:08;2.90;;;2.40;;